sensor_id;sensor_type;location;lat;lon;timestamp;temperature;humidity
31619;DHT22;18230;51.502;7.108;2022-08-01T00:00:35;20.40;99.90
31619;DHT22;18230;51.502;7.108;2022-08-01T00:05:36;20.40;99.90
31619;DHT22;18230;51.502;7.108;2022-08-01T00:10:37;20.40;99.90
31619;DHT22;18230;51.502;7.108;2022-08-01T00:15:37;20.30;99.90
31619;DHT22;18230;51.502;7.108;2022-08-01T00:20:38;20.20;99.90
31619;DHT22;18230;51.502;7.108;2022-08-01T00:25:38;20.20;99.90
31619;DHT22;18230;51.502;7.108;2022-08-01T00:30:39;20.30;99.90
31619;DHT22;18230;51.502;7.108;2022-08-01T00:35:39;20.30;99.90
31619;DHT22;18230;51.502;7.108;2022-08-01T00:40:40;20.30;99.90
31619;DHT22;18230;51.502;7.108;2022-08-01T00:45:41;20.30;99.90
31619;DHT22;18230;51.502;7.108;2022-08-01T00:50:41;20.30;99.90
31619;DHT22;18230;51.502;7.108;2022-08-01T00:55:42;20.30;99.90
31619;DHT22;18230;51.502;7.108;2022-08-01T01:00:43;20.30;99.90
31619;DHT22;18230;51.502;7.108;2022-08-01T01:06:26;20.30;99.90
31619;DHT22;18230;51.502;7.108;2022-08-01T01:11:12;20.40;99.90
31619;DHT22;18230;51.502;7.108;2022-08-01T01:16:15;20.40;99.90
31619;DHT22;18230;51.502;7.108;2022-08-01T01:31:20;20.30;99.90
31619;DHT22;18230;51.502;7.108;2022-08-01T01:36:21;20.40;99.90
31619;DHT22;18230;51.502;7.108;2022-08-01T01:41:22;20.30;99.90
31619;DHT22;18230;51.502;7.108;2022-08-01T01:46:24;20.40;99.90
31619;DHT22;18230;51.502;7.108;2022-08-01T01:51:27;20.30;99.90
31619;DHT22;18230;51.502;7.108;2022-08-01T01:56:28;20.40;99.90
31619;DHT22;18230;51.502;7.108;2022-08-01T02:01:31;20.30;99.90
31619;DHT22;18230;51.502;7.108;2022-08-01T02:06:33;20.30;99.90
31619;DHT22;18230;51.502;7.108;2022-08-01T02:11:34;20.40;99.90
31619;DHT22;18230;51.502;7.108;2022-08-01T02:16:35;20.30;99.90
31619;DHT22;18230;51.502;7.108;2022-08-01T02:21:39;20.30;99.90
31619;DHT22;18230;51.502;7.108;2022-08-01T02:26:41;20.30;99.90
31619;DHT22;18230;51.502;7.108;2022-08-01T02:31:42;20.30;99.90
31619;DHT22;18230;51.502;7.108;2022-08-01T02:36:47;20.40;99.90
31619;DHT22;18230;51.502;7.108;2022-08-01T02:41:49;20.30;99.90
31619;DHT22;18230;51.502;7.108;2022-08-01T02:46:52;20.30;99.90
31619;DHT22;18230;51.502;7.108;2022-08-01T02:51:54;20.30;99.90
31619;DHT22;18230;51.502;7.108;2022-08-01T02:56:56;20.30;99.90
31619;DHT22;18230;51.502;7.108;2022-08-01T03:01:57;20.20;99.90
31619;DHT22;18230;51.502;7.108;2022-08-01T03:07:00;20.20;99.90
31619;DHT22;18230;51.502;7.108;2022-08-01T03:12:01;20.20;99.90
31619;DHT22;18230;51.502;7.108;2022-08-01T03:17:02;20.30;99.90
31619;DHT22;18230;51.502;7.108;2022-08-01T03:22:08;20.20;99.90
31619;DHT22;18230;51.502;7.108;2022-08-01T03:27:08;20.30;99.90
31619;DHT22;18230;51.502;7.108;2022-08-01T03:32:10;20.30;99.90
31619;DHT22;18230;51.502;7.108;2022-08-01T03:42:12;20.30;99.90
31619;DHT22;18230;51.502;7.108;2022-08-01T03:47:14;20.30;99.90
31619;DHT22;18230;51.502;7.108;2022-08-01T03:52:16;20.30;99.90
31619;DHT22;18230;51.502;7.108;2022-08-01T03:57:17;20.20;99.90
31619;DHT22;18230;51.502;7.108;2022-08-01T04:02:18;20.20;99.90
31619;DHT22;18230;51.502;7.108;2022-08-01T04:07:23;20.30;99.90
31619;DHT22;18230;51.502;7.108;2022-08-01T04:12:24;20.30;99.90
31619;DHT22;18230;51.502;7.108;2022-08-01T04:17:25;20.40;99.90
31619;DHT22;18230;51.502;7.108;2022-08-01T04:22:25;20.30;99.90
31619;DHT22;18230;51.502;7.108;2022-08-01T04:27:28;20.40;99.90
31619;DHT22;18230;51.502;7.108;2022-08-01T04:32:31;20.40;99.90
31619;DHT22;18230;51.502;7.108;2022-08-01T04:37:33;20.40;99.90
31619;DHT22;18230;51.502;7.108;2022-08-01T04:42:37;20.40;99.90
31619;DHT22;18230;51.502;7.108;2022-08-01T04:47:37;20.40;99.90
31619;DHT22;18230;51.502;7.108;2022-08-01T04:52:39;20.50;99.90
31619;DHT22;18230;51.502;7.108;2022-08-01T04:57:43;20.50;99.90
31619;DHT22;18230;51.502;7.108;2022-08-01T05:02:44;20.50;99.90
31619;DHT22;18230;51.502;7.108;2022-08-01T05:07:45;20.40;99.90
31619;DHT22;18230;51.502;7.108;2022-08-01T05:12:45;20.50;99.90
31619;DHT22;18230;51.502;7.108;2022-08-01T05:17:46;20.50;99.90
31619;DHT22;18230;51.502;7.108;2022-08-01T05:22:47;20.50;99.90
31619;DHT22;18230;51.502;7.108;2022-08-01T05:27:48;20.60;99.90
31619;DHT22;18230;51.502;7.108;2022-08-01T05:32:48;20.60;99.90
31619;DHT22;18230;51.502;7.108;2022-08-01T05:37:49;20.70;99.90
31619;DHT22;18230;51.502;7.108;2022-08-01T05:42:49;20.70;99.90
31619;DHT22;18230;51.502;7.108;2022-08-01T05:47:50;20.60;99.90
31619;DHT22;18230;51.502;7.108;2022-08-01T05:52:50;20.60;99.90
31619;DHT22;18230;51.502;7.108;2022-08-01T05:57:51;20.60;99.90
31619;DHT22;18230;51.502;7.108;2022-08-01T06:02:51;20.60;99.90
31619;DHT22;18230;51.502;7.108;2022-08-01T06:07:52;20.70;99.90
31619;DHT22;18230;51.502;7.108;2022-08-01T06:12:53;20.70;99.90
31619;DHT22;18230;51.502;7.108;2022-08-01T06:17:53;20.80;99.90
31619;DHT22;18230;51.502;7.108;2022-08-01T06:22:54;20.90;99.90
31619;DHT22;18230;51.502;7.108;2022-08-01T06:27:55;20.90;99.90
31619;DHT22;18230;51.502;7.108;2022-08-01T06:32:55;21.00;99.90
31619;DHT22;18230;51.502;7.108;2022-08-01T06:37:58;21.20;99.90
31619;DHT22;18230;51.502;7.108;2022-08-01T06:42:59;21.40;99.90
31619;DHT22;18230;51.502;7.108;2022-08-01T06:47:59;21.90;99.90
31619;DHT22;18230;51.502;7.108;2022-08-01T06:53:00;21.90;99.90
31619;DHT22;18230;51.502;7.108;2022-08-01T06:58:00;21.80;99.90
31619;DHT22;18230;51.502;7.108;2022-08-01T07:03:01;21.90;99.90
31619;DHT22;18230;51.502;7.108;2022-08-01T07:08:02;22.00;99.90
31619;DHT22;18230;51.502;7.108;2022-08-01T07:13:02;22.20;99.90
31619;DHT22;18230;51.502;7.108;2022-08-01T07:18:03;22.40;99.90
31619;DHT22;18230;51.502;7.108;2022-08-01T07:23:07;22.70;99.90
31619;DHT22;18230;51.502;7.108;2022-08-01T07:28:08;23.20;99.90
31619;DHT22;18230;51.502;7.108;2022-08-01T07:33:09;23.30;99.90
31619;DHT22;18230;51.502;7.108;2022-08-01T07:38:09;23.20;99.90
31619;DHT22;18230;51.502;7.108;2022-08-01T07:43:10;23.20;99.90
31619;DHT22;18230;51.502;7.108;2022-08-01T07:48:13;22.90;99.90
31619;DHT22;18230;51.502;7.108;2022-08-01T07:53:17;22.90;99.90
31619;DHT22;18230;51.502;7.108;2022-08-01T07:58:17;23.20;99.90
31619;DHT22;18230;51.502;7.108;2022-08-01T08:03:18;23.40;99.90
31619;DHT22;18230;51.502;7.108;2022-08-01T08:08:19;23.40;99.90
31619;DHT22;18230;51.502;7.108;2022-08-01T08:13:19;23.40;99.90
31619;DHT22;18230;51.502;7.108;2022-08-01T08:18:20;23.70;99.90
31619;DHT22;18230;51.502;7.108;2022-08-01T08:23:20;23.90;99.90
31619;DHT22;18230;51.502;7.108;2022-08-01T08:28:39;24.20;99.90
31619;DHT22;18230;51.502;7.108;2022-08-01T08:33:40;24.00;99.90
31619;DHT22;18230;51.502;7.108;2022-08-01T08:38:40;24.20;99.90
31619;DHT22;18230;51.502;7.108;2022-08-01T08:43:41;24.10;99.90
31619;DHT22;18230;51.502;7.108;2022-08-01T08:48:42;24.10;99.90
31619;DHT22;18230;51.502;7.108;2022-08-01T08:53:42;23.80;99.90
31619;DHT22;18230;51.502;7.108;2022-08-01T08:58:44;24.00;99.90
31619;DHT22;18230;51.502;7.108;2022-08-01T09:03:45;24.40;99.90
31619;DHT22;18230;51.502;7.108;2022-08-01T09:08:46;24.50;99.90
31619;DHT22;18230;51.502;7.108;2022-08-01T09:19:09;24.30;99.90
31619;DHT22;18230;51.502;7.108;2022-08-01T09:24:14;24.40;99.90
31619;DHT22;18230;51.502;7.108;2022-08-01T09:29:22;24.70;99.90
31619;DHT22;18230;51.502;7.108;2022-08-01T09:34:23;24.90;99.90
31619;DHT22;18230;51.502;7.108;2022-08-01T09:39:25;24.40;99.90
31619;DHT22;18230;51.502;7.108;2022-08-01T09:44:40;24.30;99.90
31619;DHT22;18230;51.502;7.108;2022-08-01T09:49:42;24.50;99.90
31619;DHT22;18230;51.502;7.108;2022-08-01T09:54:43;24.70;99.90
31619;DHT22;18230;51.502;7.108;2022-08-01T09:59:47;25.00;99.90
31619;DHT22;18230;51.502;7.108;2022-08-01T10:04:49;24.90;99.90
31619;DHT22;18230;51.502;7.108;2022-08-01T10:09:49;25.20;99.90
31619;DHT22;18230;51.502;7.108;2022-08-01T10:14:50;25.20;99.90
31619;DHT22;18230;51.502;7.108;2022-08-01T10:19:52;25.00;99.90
31619;DHT22;18230;51.502;7.108;2022-08-01T10:24:55;24.90;99.90
31619;DHT22;18230;51.502;7.108;2022-08-01T10:29:56;24.90;99.90
31619;DHT22;18230;51.502;7.108;2022-08-01T10:34:58;25.10;99.90
31619;DHT22;18230;51.502;7.108;2022-08-01T10:39:59;25.30;99.90
31619;DHT22;18230;51.502;7.108;2022-08-01T10:45:00;25.20;99.90
31619;DHT22;18230;51.502;7.108;2022-08-01T10:50:35;24.90;99.90
31619;DHT22;18230;51.502;7.108;2022-08-01T10:55:28;25.10;99.90
31619;DHT22;18230;51.502;7.108;2022-08-01T11:00:28;25.70;99.90
31619;DHT22;18230;51.502;7.108;2022-08-01T11:05:33;26.00;99.90
31619;DHT22;18230;51.502;7.108;2022-08-01T11:15:35;25.60;99.90
31619;DHT22;18230;51.502;7.108;2022-08-01T11:20:36;25.50;99.90
31619;DHT22;18230;51.502;7.108;2022-08-01T11:30:38;25.30;99.90
31619;DHT22;18230;51.502;7.108;2022-08-01T11:41:11;25.70;99.90
31619;DHT22;18230;51.502;7.108;2022-08-01T11:46:12;26.00;99.90
31619;DHT22;18230;51.502;7.108;2022-08-01T11:51:15;25.90;99.90
31619;DHT22;18230;51.502;7.108;2022-08-01T11:56:16;26.00;99.90
31619;DHT22;18230;51.502;7.108;2022-08-01T12:01:16;25.90;99.90
31619;DHT22;18230;51.502;7.108;2022-08-01T12:06:26;25.90;99.90
31619;DHT22;18230;51.502;7.108;2022-08-01T12:11:27;26.10;99.90
31619;DHT22;18230;51.502;7.108;2022-08-01T12:16:28;26.20;99.90
31619;DHT22;18230;51.502;7.108;2022-08-01T12:21:28;26.40;99.90
31619;DHT22;18230;51.502;7.108;2022-08-01T12:26:39;26.70;99.90
31619;DHT22;18230;51.502;7.108;2022-08-01T12:31:40;26.90;99.90
31619;DHT22;18230;51.502;7.108;2022-08-01T12:36:40;26.50;99.90
31619;DHT22;18230;51.502;7.108;2022-08-01T12:41:42;26.40;99.90
31619;DHT22;18230;51.502;7.108;2022-08-01T12:46:43;26.50;99.90
31619;DHT22;18230;51.502;7.108;2022-08-01T12:51:44;26.70;99.90
31619;DHT22;18230;51.502;7.108;2022-08-01T12:56:45;27.00;99.90
31619;DHT22;18230;51.502;7.108;2022-08-01T13:01:46;26.80;99.90
31619;DHT22;18230;51.502;7.108;2022-08-01T13:06:47;26.60;99.90
31619;DHT22;18230;51.502;7.108;2022-08-01T13:11:48;26.40;99.90
31619;DHT22;18230;51.502;7.108;2022-08-01T13:16:49;26.20;99.90
31619;DHT22;18230;51.502;7.108;2022-08-01T13:21:54;26.40;99.90
31619;DHT22;18230;51.502;7.108;2022-08-01T13:26:57;26.60;99.90
31619;DHT22;18230;51.502;7.108;2022-08-01T13:32:21;26.60;99.90
31619;DHT22;18230;51.502;7.108;2022-08-01T13:37:22;26.30;99.90
31619;DHT22;18230;51.502;7.108;2022-08-01T13:42:23;26.60;99.90
31619;DHT22;18230;51.502;7.108;2022-08-01T13:47:26;26.90;99.90
31619;DHT22;18230;51.502;7.108;2022-08-01T13:52:26;27.10;99.90
31619;DHT22;18230;51.502;7.108;2022-08-01T13:57:27;27.10;99.90
31619;DHT22;18230;51.502;7.108;2022-08-01T14:02:28;27.20;99.90
31619;DHT22;18230;51.502;7.108;2022-08-01T14:07:28;27.70;99.90
31619;DHT22;18230;51.502;7.108;2022-08-01T14:12:29;27.60;99.90
31619;DHT22;18230;51.502;7.108;2022-08-01T14:17:30;26.60;99.90
31619;DHT22;18230;51.502;7.108;2022-08-01T14:22:30;26.80;99.90
31619;DHT22;18230;51.502;7.108;2022-08-01T14:27:31;27.20;99.90
31619;DHT22;18230;51.502;7.108;2022-08-01T14:32:36;26.70;99.90
31619;DHT22;18230;51.502;7.108;2022-08-01T14:37:36;26.80;99.90
31619;DHT22;18230;51.502;7.108;2022-08-01T14:42:37;27.00;99.90
31619;DHT22;18230;51.502;7.108;2022-08-01T14:47:39;27.10;99.90
31619;DHT22;18230;51.502;7.108;2022-08-01T14:52:41;27.10;99.90
31619;DHT22;18230;51.502;7.108;2022-08-01T14:57:42;27.00;99.90
31619;DHT22;18230;51.502;7.108;2022-08-01T15:02:43;26.80;99.90
31619;DHT22;18230;51.502;7.108;2022-08-01T15:07:43;26.90;99.90
31619;DHT22;18230;51.502;7.108;2022-08-01T15:12:44;27.20;99.90
31619;DHT22;18230;51.502;7.108;2022-08-01T15:17:45;27.50;99.90
31619;DHT22;18230;51.502;7.108;2022-08-01T15:22:45;27.00;99.90
31619;DHT22;18230;51.502;7.108;2022-08-01T15:27:47;26.90;99.90
31619;DHT22;18230;51.502;7.108;2022-08-01T15:32:48;26.70;99.90
31619;DHT22;18230;51.502;7.108;2022-08-01T15:37:49;26.50;99.90
31619;DHT22;18230;51.502;7.108;2022-08-01T15:42:49;26.50;99.90
31619;DHT22;18230;51.502;7.108;2022-08-01T15:47:50;27.00;99.90
31619;DHT22;18230;51.502;7.108;2022-08-01T15:52:50;27.10;99.90
31619;DHT22;18230;51.502;7.108;2022-08-01T15:57:51;26.90;99.90
31619;DHT22;18230;51.502;7.108;2022-08-01T16:02:52;26.80;99.90
31619;DHT22;18230;51.502;7.108;2022-08-01T16:07:52;26.60;99.90
31619;DHT22;18230;51.502;7.108;2022-08-01T16:12:53;26.50;99.90
31619;DHT22;18230;51.502;7.108;2022-08-01T16:17:53;26.60;99.90
31619;DHT22;18230;51.502;7.108;2022-08-01T16:22:54;26.40;99.90
31619;DHT22;18230;51.502;7.108;2022-08-01T16:27:55;26.60;99.90
31619;DHT22;18230;51.502;7.108;2022-08-01T16:32:55;26.60;99.90
31619;DHT22;18230;51.502;7.108;2022-08-01T16:37:57;26.40;99.90
31619;DHT22;18230;51.502;7.108;2022-08-01T16:42:57;26.70;99.90
31619;DHT22;18230;51.502;7.108;2022-08-01T16:47:58;26.70;99.90
31619;DHT22;18230;51.502;7.108;2022-08-01T16:52:58;26.60;99.90
31619;DHT22;18230;51.502;7.108;2022-08-01T16:57:59;26.40;99.90
31619;DHT22;18230;51.502;7.108;2022-08-01T17:02:59;26.40;99.90
31619;DHT22;18230;51.502;7.108;2022-08-01T17:08:00;26.40;99.90
31619;DHT22;18230;51.502;7.108;2022-08-01T17:13:01;26.40;99.90
31619;DHT22;18230;51.502;7.108;2022-08-01T17:18:02;26.40;99.90
31619;DHT22;18230;51.502;7.108;2022-08-01T17:23:03;26.40;99.90
31619;DHT22;18230;51.502;7.108;2022-08-01T17:28:03;26.30;99.90
31619;DHT22;18230;51.502;7.108;2022-08-01T17:33:04;26.20;99.90
31619;DHT22;18230;51.502;7.108;2022-08-01T17:38:05;26.30;99.90
31619;DHT22;18230;51.502;7.108;2022-08-01T17:43:06;26.40;99.90
31619;DHT22;18230;51.502;7.108;2022-08-01T17:48:06;26.20;99.90
31619;DHT22;18230;51.502;7.108;2022-08-01T17:53:07;26.20;99.90
31619;DHT22;18230;51.502;7.108;2022-08-01T17:58:08;26.70;99.90
31619;DHT22;18230;51.502;7.108;2022-08-01T18:03:11;27.10;99.90
31619;DHT22;18230;51.502;7.108;2022-08-01T18:08:15;27.60;99.90
31619;DHT22;18230;51.502;7.108;2022-08-01T18:13:16;27.60;99.90
31619;DHT22;18230;51.502;7.108;2022-08-01T18:18:17;27.70;99.90
31619;DHT22;18230;51.502;7.108;2022-08-01T18:23:20;27.60;99.90
31619;DHT22;18230;51.502;7.108;2022-08-01T18:28:21;27.60;99.90
31619;DHT22;18230;51.502;7.108;2022-08-01T18:33:22;27.60;99.90
31619;DHT22;18230;51.502;7.108;2022-08-01T18:38:22;27.50;99.90
31619;DHT22;18230;51.502;7.108;2022-08-01T18:43:23;27.30;99.90
31619;DHT22;18230;51.502;7.108;2022-08-01T18:48:24;27.00;99.90
31619;DHT22;18230;51.502;7.108;2022-08-01T18:53:24;26.70;99.90
31619;DHT22;18230;51.502;7.108;2022-08-01T18:58:25;26.40;99.90
31619;DHT22;18230;51.502;7.108;2022-08-01T19:03:26;26.20;99.90
31619;DHT22;18230;51.502;7.108;2022-08-01T19:08:26;26.00;99.90
31619;DHT22;18230;51.502;7.108;2022-08-01T19:13:27;25.70;99.90
31619;DHT22;18230;51.502;7.108;2022-08-01T19:18:28;25.60;99.90
31619;DHT22;18230;51.502;7.108;2022-08-01T19:23:29;25.50;99.90
31619;DHT22;18230;51.502;7.108;2022-08-01T19:28:50;25.20;99.90
31619;DHT22;18230;51.502;7.108;2022-08-01T19:33:52;24.90;99.90
31619;DHT22;18230;51.502;7.108;2022-08-01T19:38:52;24.70;99.90
31619;DHT22;18230;51.502;7.108;2022-08-01T19:43:54;24.50;99.90
31619;DHT22;18230;51.502;7.108;2022-08-01T19:48:55;24.40;99.90
31619;DHT22;18230;51.502;7.108;2022-08-01T19:53:56;24.20;99.90
31619;DHT22;18230;51.502;7.108;2022-08-01T19:58:59;24.10;99.90
31619;DHT22;18230;51.502;7.108;2022-08-01T20:04:00;23.90;99.90
31619;DHT22;18230;51.502;7.108;2022-08-01T20:09:03;23.80;99.90
31619;DHT22;18230;51.502;7.108;2022-08-01T20:14:04;23.70;99.90
31619;DHT22;18230;51.502;7.108;2022-08-01T20:19:04;23.60;99.90
31619;DHT22;18230;51.502;7.108;2022-08-01T20:24:06;23.40;99.90
31619;DHT22;18230;51.502;7.108;2022-08-01T20:29:09;23.30;99.90
31619;DHT22;18230;51.502;7.108;2022-08-01T20:34:10;23.30;99.90
31619;DHT22;18230;51.502;7.108;2022-08-01T20:39:12;23.10;99.90
31619;DHT22;18230;51.502;7.108;2022-08-01T20:44:16;23.00;99.90
31619;DHT22;18230;51.502;7.108;2022-08-01T20:49:17;22.90;99.90
31619;DHT22;18230;51.502;7.108;2022-08-01T20:54:19;22.90;99.90
31619;DHT22;18230;51.502;7.108;2022-08-01T21:09:42;22.50;99.90
31619;DHT22;18230;51.502;7.108;2022-08-01T21:14:50;22.10;99.90
31619;DHT22;18230;51.502;7.108;2022-08-01T21:19:51;21.90;99.90
31619;DHT22;18230;51.502;7.108;2022-08-01T21:24:54;21.60;99.90
31619;DHT22;18230;51.502;7.108;2022-08-01T21:29:57;21.40;99.90
31619;DHT22;18230;51.502;7.108;2022-08-01T21:35:00;21.20;99.90
31619;DHT22;18230;51.502;7.108;2022-08-01T21:40:01;21.00;99.90
31619;DHT22;18230;51.502;7.108;2022-08-01T21:45:01;20.80;99.90
31619;DHT22;18230;51.502;7.108;2022-08-01T21:50:02;20.80;99.90
31619;DHT22;18230;51.502;7.108;2022-08-01T21:55:04;20.70;99.90
31619;DHT22;18230;51.502;7.108;2022-08-01T22:00:15;20.50;99.90
31619;DHT22;18230;51.502;7.108;2022-08-01T22:05:24;20.50;99.90
31619;DHT22;18230;51.502;7.108;2022-08-01T22:10:24;20.40;99.90
31619;DHT22;18230;51.502;7.108;2022-08-01T22:15:28;20.20;99.90
31619;DHT22;18230;51.502;7.108;2022-08-01T22:20:29;20.30;99.90
31619;DHT22;18230;51.502;7.108;2022-08-01T22:25:30;20.30;99.90
31619;DHT22;18230;51.502;7.108;2022-08-01T22:30:32;20.10;99.90
31619;DHT22;18230;51.502;7.108;2022-08-01T22:35:34;19.90;99.90
31619;DHT22;18230;51.502;7.108;2022-08-01T22:40:35;19.90;99.90
31619;DHT22;18230;51.502;7.108;2022-08-01T22:45:46;19.80;99.90
31619;DHT22;18230;51.502;7.108;2022-08-01T22:51:15;19.60;99.90
31619;DHT22;18230;51.502;7.108;2022-08-01T22:56:11;19.50;99.90
31619;DHT22;18230;51.502;7.108;2022-08-01T23:01:12;19.50;99.90
31619;DHT22;18230;51.502;7.108;2022-08-01T23:11:17;19.70;99.90
31619;DHT22;18230;51.502;7.108;2022-08-01T23:16:18;19.60;99.90
31619;DHT22;18230;51.502;7.108;2022-08-01T23:21:19;19.30;99.90
31619;DHT22;18230;51.502;7.108;2022-08-01T23:26:20;19.20;99.90
31619;DHT22;18230;51.502;7.108;2022-08-01T23:31:21;19.00;99.90
31619;DHT22;18230;51.502;7.108;2022-08-01T23:36:22;18.90;99.90
31619;DHT22;18230;51.502;7.108;2022-08-01T23:41:22;18.90;99.90
31619;DHT22;18230;51.502;7.108;2022-08-01T23:46:23;19.00;99.90
31619;DHT22;18230;51.502;7.108;2022-08-01T23:51:23;18.90;99.90
31619;DHT22;18230;51.502;7.108;2022-08-01T23:56:24;18.70;99.90
